Time,TemperatureF,DewpointF,PressureIn,WindDirection,WindDirectionDegrees,WindSpeedMPH,WindSpeedGustMPH,Humidity,HourlyPrecipIn,Conditions,Clouds,dailyrainin,SoftwareType,DateUTC
2013-09-17 01:12:00,68.0,45.0,-100.00,NNE,21,-999.0,0.0,43,-99.99,,,-99.99,,2013-09-17 08:12:00,
2013-09-17 01:22:00,68.0,45.0,-100.00,NNE,21,-999.0,0.0,43,-99.99,,,-99.99,,2013-09-17 08:22:00,
2013-09-17 01:42:00,67.0,45.0,-100.00,NNE,21,-999.0,1.0,45,-99.99,,,-99.99,,2013-09-17 08:42:00,
2013-09-17 01:52:00,67.0,45.0,-100.00,NNE,21,-999.0,1.0,45,-99.99,,,-99.99,,2013-09-17 08:52:00,
2013-09-17 02:11:00,70.0,45.0,-100.00,NNE,21,-999.0,7.0,41,-99.99,,,-99.99,,2013-09-17 09:11:00,
2013-09-17 02:22:00,70.0,45.0,-100.00,NNE,21,-999.0,7.0,41,-99.99,,,-99.99,,2013-09-17 09:22:00,
2013-09-17 02:42:00,69.0,45.0,-100.00,NNE,14,-999.0,6.0,42,-99.99,,,-99.99,,2013-09-17 09:42:00,
2013-09-17 02:53:00,69.0,45.0,-100.00,NNE,14,-999.0,6.0,42,-99.99,,,-99.99,,2013-09-17 09:53:00,
2013-09-17 03:12:00,70.0,43.0,-100.00,NNE,13,1.0,7.0,38,-99.99,,,-99.99,,2013-09-17 10:12:00,
2013-09-17 03:23:00,70.0,43.0,-100.00,NNE,13,1.0,7.0,38,-99.99,,,-99.99,,2013-09-17 10:23:00,
2013-09-17 03:53:00,68.0,40.0,-100.00,NNE,13,-999.0,7.0,36,-99.99,,,-99.99,,2013-09-17 10:53:00,
2013-09-17 04:11:00,67.0,42.0,-100.00,NNE,15,-999.0,5.0,40,-99.99,,,-99.99,,2013-09-17 11:11:00,
2013-09-17 06:11:00,63.0,40.0,-100.00,NNE,15,-999.0,2.0,42,-99.99,,,-99.99,,2013-09-17 13:11:00,
2013-09-17 06:22:00,63.0,40.0,-100.00,NNE,15,-999.0,2.0,42,-99.99,,,-99.99,,2013-09-17 13:22:00,
2013-09-17 06:42:00,61.0,42.0,-100.00,NNE,16,-999.0,0.0,50,-99.99,,,-99.99,,2013-09-17 13:42:00,
2013-09-17 06:52:00,61.0,42.0,-100.00,NNE,16,-999.0,0.0,50,-99.99,,,-99.99,,2013-09-17 13:52:00,
2013-09-17 07:11:00,62.0,43.0,-100.00,NNE,15,-999.0,0.0,49,-99.99,,,-99.99,,2013-09-17 14:11:00,
2013-09-17 07:21:00,62.0,43.0,-100.00,NNE,15,-999.0,0.0,49,-99.99,,,-99.99,,2013-09-17 14:21:00,
2013-09-17 13:22:00,81.0,60.0,-100.00,West,260,-999.0,7.0,49,-99.99,,,-99.99,,2013-09-17 20:22:00,
2013-09-17 16:12:00,77.0,60.0,-100.00,WSW,246,-999.0,7.0,56,-99.99,,,-99.99,,2013-09-17 23:12:00,
2013-09-17 16:21:00,77.0,60.0,-100.00,WSW,246,-999.0,7.0,56,-99.99,,,-99.99,,2013-09-17 23:21:00,
2013-09-17 16:42:00,78.0,58.0,-100.00,West,260,-999.0,6.0,50,-99.99,,,-99.99,,2013-09-17 23:42:00,
2013-09-17 16:52:00,78.0,58.0,-100.00,West,260,-999.0,6.0,50,-99.99,,,-99.99,,2013-09-17 23:52:00,
2013-09-17 17:22:00,78.0,57.0,-100.00,SW,217,-999.0,5.0,48,-99.99,,,-99.99,,2013-09-18 00:22:00,
2013-09-17 17:42:00,76.0,57.0,-100.00,SSW,199,-999.0,6.0,51,-99.99,,,-99.99,,2013-09-18 00:42:00,
2013-09-17 17:52:00,76.0,57.0,-100.00,SSW,199,-999.0,6.0,51,-99.99,,,-99.99,,2013-09-18 00:52:00,
2013-09-17 18:11:00,75.0,56.0,-100.00,WSW,242,-999.0,4.0,52,-99.99,,,-99.99,,2013-09-18 01:11:00,
2013-09-17 18:21:00,75.0,56.0,-100.00,WSW,242,-999.0,4.0,52,-99.99,,,-99.99,,2013-09-18 01:21:00,
2013-09-17 18:42:00,73.0,57.0,-100.00,WSW,256,-999.0,5.0,57,-99.99,,,-99.99,,2013-09-18 01:42:00,
2013-09-17 18:52:00,73.0,57.0,-100.00,WSW,256,-999.0,5.0,57,-99.99,,,-99.99,,2013-09-18 01:52:00,
2013-09-17 19:11:00,67.0,55.0,-100.00,WSW,256,-999.0,5.0,65,-99.99,,,-99.99,,2013-09-18 02:11:00,
2013-09-17 19:22:00,67.0,55.0,-100.00,WSW,256,-999.0,5.0,65,-99.99,,,-99.99,,2013-09-18 02:22:00,
2013-09-17 19:43:00,64.0,52.0,-100.00,WSW,256,-999.0,5.0,64,-99.99,,,-99.99,,2013-09-18 02:43:00,
2013-09-17 19:52:00,64.0,52.0,-100.00,WSW,256,-999.0,5.0,64,-99.99,,,-99.99,,2013-09-18 02:52:00,
2013-09-17 20:11:00,64.0,54.0,-100.00,WSW,256,-999.0,0.0,69,-99.99,,,-99.99,,2013-09-18 03:11:00,
2013-09-17 20:23:00,64.0,54.0,-100.00,WSW,256,-999.0,0.0,69,-99.99,,,-99.99,,2013-09-18 03:23:00,
2013-09-17 20:44:00,65.0,52.0,-100.00,NW,310,-999.0,0.0,63,-99.99,,,-99.99,,2013-09-18 03:44:00,
2013-09-17 20:55:00,65.0,52.0,-100.00,NW,310,-999.0,0.0,63,-99.99,,,-99.99,,2013-09-18 03:55:00,
2013-09-17 21:14:00,66.0,51.0,-100.00,NW,310,-999.0,0.0,59,-99.99,,,-99.99,,2013-09-18 04:14:00,
2013-09-17 21:24:00,66.0,51.0,-100.00,NW,310,-999.0,0.0,59,-99.99,,,-99.99,,2013-09-18 04:24:00,
2013-09-17 21:44:00,65.0,49.0,-100.00,NW,310,-999.0,0.0,56,-99.99,,,-99.99,,2013-09-18 04:44:00,
2013-09-17 21:54:00,65.0,49.0,-100.00,NW,310,-999.0,0.0,56,-99.99,,,-99.99,,2013-09-18 04:54:00,
2013-09-17 22:12:00,65.0,46.0,-100.00,NW,310,-999.0,0.0,51,-99.99,,,-99.99,,2013-09-18 05:12:00,
2013-09-17 22:23:00,65.0,46.0,-100.00,NW,310,-999.0,0.0,51,-99.99,,,-99.99,,2013-09-18 05:23:00,
2013-09-17 22:42:00,66.0,45.0,-100.00,North,357,-999.0,0.0,46,-99.99,,,0.00,,2013-09-18 05:42:00,
2013-09-17 22:53:00,66.0,45.0,-100.00,North,357,-999.0,0.0,46,-99.99,,,0.00,,2013-09-18 05:53:00,
2013-09-17 23:42:00,65.0,45.0,-100.00,North,357,-999.0,0.0,48,-99.99,,,-99.99,,2013-09-18 06:42:00,
2013-09-17 23:52:00,65.0,45.0,-100.00,North,357,-999.0,0.0,48,-99.99,,,-99.99,,2013-09-18 06:52:00,